Kampung Linting, Malaysia

11:41 AM +08 on September 22, 2018 (GMT +0800)
Changi | | Change Station

Elev 52 ft 1.37 °N, 103.98 °E | Updated 41 minutes ago

Mostly Cloudy
Mostly Cloudy
84 °F
Feels Like 92 °F
N
5
Wind Variable Wind from SSW

Today
High -- | Low -- °F
--% Chance of Precip.
Yesterday
High -- | Low -- °F
Precip. -- in
Pressure 29.95 in
Visibility 6.2 miles
Clouds Scattered Clouds 1800 ft
Few 2000 ft
Mostly Cloudy 30000 ft
Heat Index 92 °F
Dew Point 75 °F
Humidity 74%
Rainfall 0.00 in
Snow Depth Not available.
6:53 AM 6:59 PM
Waxing Gibbous, 92% visible
METAR WSSS 220300Z 21004KT 180V280 9999 SCT018 FEW020TCU BKN300 29/24 Q1014 NOSIG
Pressure 29.95 in
Visibility 6.2 miles
Clouds Scattered Clouds 1800 ft
Few 2000 ft
Mostly Cloudy 30000 ft
Heat Index 92 °F
Dew Point 75 °F
Humidity 74%
Rainfall 0.00 in
Snow Depth Not available.
6:53 AM 6:59 PM
Waxing Gibbous, 92% visible
METAR WSSS 220300Z 21004KT 180V280 9999 SCT018 FEW020TCU BKN300 29/24 Q1014 NOSIG

Get Severe Weather Alerts

Thanks for signing up!

Be on the lookout for a verification email in your inbox.

You'll start receiving the daily forecast at 6 AM.

×

10-Day Weather Forecast

No radar image for this location.
×

Almanac

Astronomy

Sep. 22, 2018 Rise Set
Actual Time
Civil Twilight
Nautical Twilight
Astronomical Twilight
Moon
Length of Visible Light
Length of Day
Tomorrow will be .
, % of the Moon is Illuminated

Today's Extremes

Country Highs Country Lows

Community

WunderPhotos

Category 6

Welcome to Category 6. This is the collective home for Weather Underground's featured writeups by Dr. Jeff Masters (right), Bob Henson (left), Chris Burt, and other regular contributors.

Nearby

Air Quality

  Air Quality AQ Index Pollutant
Not available.

Snow Depth

Station Depth Elevation

Earthquake Activity

City Distance Mag. Time & Date
Minimum magnitude displayed is 2.5.

Coastal Water Temperatures

Place Temperature

Stations

Nearby Weather Stations

Station Location Temp. Windchill Dew Point Humidity Wind Precip. Elev Updated Type